Time;durP1;ratioP1;P1;durP2;ratioP2;P2;SDS_P1;SDS_P2;PMS_P1;PMS_P2;Temp;Humidity;BMP_temperature;BMP_pressure;BME280_temperature;BME280_humidity;BME280_pressure;Samples;Min_cycle;Max_cycle;Signal;HPM_P1;HPM_P2
2022/01/18 00:00:03;;;;;;;18.87;4.20;;;1.80;99.90;;;;;;5049066;28;20204;-64
2022/01/18 00:02:29;;;;;;;15.47;3.33;;;1.70;99.90;;;;;;5034425;28;20268;-64
2022/01/18 00:04:55;;;;;;;15.63;4.97;;;1.70;99.90;;;;;;5059917;28;20208;-65
2022/01/18 00:07:20;;;;;;;16.43;4.93;;;1.70;99.90;;;;;;5056151;28;20176;-63
2022/01/18 00:09:46;;;;;;;16.80;3.60;;;1.80;99.90;;;;;;5058003;28;20161;-64
2022/01/18 00:17:54;;;;;;;8.97;3.40;;;1.70;99.90;;;;;;5051805;28;20240;-64
2022/01/18 00:20:35;;;;;;;21.03;4.10;;;1.70;99.90;;;;;;5034275;28;20235;-64
2022/01/18 00:23:00;;;;;;;13.00;3.80;;;1.70;99.90;;;;;;5037556;28;20179;-66
2022/01/18 00:25:26;;;;;;;13.67;4.23;;;1.70;99.90;;;;;;5054764;28;20156;-65
2022/01/18 00:27:52;;;;;;;12.93;3.80;;;1.90;99.90;;;;;;5054627;28;20278;-65
2022/01/18 00:35:17;;;;;;;12.60;3.50;;;1.70;99.90;;;;;;5054177;28;20232;-64
2022/01/18 00:37:52;;;;;;;20.47;4.33;;;1.60;99.90;;;;;;5053442;28;20293;-64
2022/01/18 00:40:18;;;;;;;19.10;4.40;;;1.60;99.90;;;;;;5053716;28;20161;-64
2022/01/18 00:42:44;;;;;;;10.43;3.40;;;1.70;99.90;;;;;;5053230;28;20243;-65
2022/01/18 00:45:10;;;;;;;18.13;3.67;;;1.60;99.90;;;;;;5050113;28;20172;-64
2022/01/18 00:47:35;;;;;;;14.57;3.77;;;1.60;99.90;;;;;;5052670;28;20187;-64
2022/01/18 00:50:03;;;;;;;13.37;3.80;;;1.60;99.90;;;;;;5053512;28;20168;-64
2022/01/18 00:52:31;;;;;;;18.80;4.03;;;1.70;99.90;;;;;;5049341;28;20187;-64
2022/01/18 00:54:59;;;;;;;19.17;5.50;;;1.60;99.90;;;;;;5054079;28;20238;-62
2022/01/18 00:57:25;;;;;;;8.77;3.50;;;1.70;99.90;;;;;;5049532;28;20547;-65
2022/01/18 00:59:50;;;;;;;21.50;3.70;;;1.70;99.90;;;;;;5053663;28;20165;-64
2022/01/18 01:02:17;;;;;;;12.17;3.73;;;1.70;99.90;;;;;;5053447;28;20161;-64
2022/01/18 01:04:47;;;;;;;13.37;3.67;;;1.70;99.90;;;;;;5052320;28;20270;-64
2022/01/18 01:07:15;;;;;;;11.83;4.07;;;1.70;99.90;;;;;;5053453;28;20180;-63
2022/01/18 01:09:41;;;;;;;16.43;4.10;;;1.70;99.90;;;;;;5053584;28;20591;-63
2022/01/18 01:12:07;;;;;;;22.63;4.63;;;1.60;99.90;;;;;;5053133;28;20195;-64
2022/01/18 01:14:34;;;;;;;16.83;4.40;;;1.60;99.90;;;;;;5053263;28;20180;-64
2022/01/18 01:36:59;;;;;;;24.07;5.50;;;1.60;99.90;;;;;;5052769;28;20231;-64
2022/01/18 01:46:37;;;;;;;15.80;3.87;;;1.80;99.90;;;;;;5034204;28;20512;-65
2022/01/18 01:49:08;;;;;;;20.97;3.93;;;1.70;99.90;;;;;;5036024;28;20197;-64
2022/01/18 01:51:34;;;;;;;13.27;4.30;;;1.80;99.90;;;;;;5033347;28;20164;-63
2022/01/18 01:54:03;;;;;;;19.63;4.03;;;1.80;99.90;;;;;;5039131;28;20177;-64
2022/01/18 01:56:30;;;;;;;19.20;3.67;;;1.90;99.90;;;;;;5050843;28;20195;-65
2022/01/18 01:58:57;;;;;;;16.73;3.90;;;1.90;99.90;;;;;;5056213;28;20234;-64
2022/01/18 02:01:23;;;;;;;19.13;4.03;;;1.90;99.90;;;;;;5055513;28;20558;-63
2022/01/18 02:03:49;;;;;;;19.60;4.10;;;1.90;99.90;;;;;;5056465;28;20177;-64
2022/01/18 02:06:15;;;;;;;12.97;3.40;;;1.90;99.90;;;;;;5056264;28;20165;-63
2022/01/18 02:08:42;;;;;;;20.73;4.57;;;1.80;99.90;;;;;;5056746;28;20473;-64
2022/01/18 02:11:07;;;;;;;13.87;3.50;;;1.90;99.90;;;;;;5056284;28;20164;-64
2022/01/18 02:13:33;;;;;;;17.13;4.27;;;1.80;99.90;;;;;;5056193;28;20176;-64
2022/01/18 02:23:45;;;;;;;21.97;4.40;;;1.80;99.90;;;;;;5056226;28;20250;-64
2022/01/18 02:26:10;;;;;;;14.17;3.87;;;1.80;99.90;;;;;;5056778;28;20207;-63
2022/01/18 02:28:36;;;;;;;20.87;4.23;;;1.90;99.90;;;;;;5056368;28;20200;-64
2022/01/18 02:31:02;;;;;;;14.60;3.80;;;1.90;99.90;;;;;;5056223;28;20683;-66
2022/01/18 02:33:27;;;;;;;24.53;4.80;;;1.90;99.90;;;;;;5045775;28;20188;-68
2022/01/18 02:35:53;;;;;;;15.20;3.63;;;2.00;99.90;;;;;;5069875;28;20236;-63
2022/01/18 02:38:19;;;;;;;15.93;3.90;;;1.90;99.90;;;;;;5065396;28;20243;-64
2022/01/18 02:40:45;;;;;;;17.73;3.53;;;1.90;99.90;;;;;;5071960;28;20203;-66
2022/01/18 02:45:58;;;;;;;27.30;3.60;;;1.90;99.90;;;;;;5073715;28;20147;-63
2022/01/18 02:48:25;;;;;;;19.90;4.17;;;1.90;99.90;;;;;;5072975;28;20180;-65
2022/01/18 02:50:51;;;;;;;22.90;4.10;;;1.90;99.90;;;;;;5070654;28;20179;-63
2022/01/18 02:53:16;;;;;;;14.70;3.53;;;1.90;99.90;;;;;;5074032;28;20160;-65
2022/01/18 02:55:48;;;;;;;12.83;4.03;;;1.80;99.90;;;;;;5063888;28;20180;-64
2022/01/18 02:58:21;;;;;;;14.60;3.77;;;1.80;99.90;;;;;;5045497;28;20181;-64
2022/01/18 03:03:37;;;;;;;9.20;3.03;;;2.00;99.90;;;;;;5033999;28;20199;-64
2022/01/18 03:06:04;;;;;;;19.43;3.80;;;2.00;99.90;;;;;;5042554;28;20543;-64
2022/01/18 03:08:30;;;;;;;21.50;3.80;;;2.00;99.90;;;;;;5054796;28;20169;-63
2022/01/18 03:10:56;;;;;;;16.77;3.90;;;2.10;99.90;;;;;;5055519;28;20172;-64
2022/01/18 03:13:22;;;;;;;20.33;3.67;;;2.10;99.90;;;;;;5050596;28;20218;-65
2022/01/18 03:15:48;;;;;;;15.37;3.17;;;2.10;99.90;;;;;;5054738;28;20184;-64
2022/01/18 03:18:13;;;;;;;26.57;4.00;;;2.00;99.90;;;;;;5055645;28;20160;-64
2022/01/18 03:20:39;;;;;;;18.83;4.03;;;2.10;99.90;;;;;;5054979;28;20161;-65
2022/01/18 03:23:11;;;;;;;16.83;3.87;;;2.10;99.90;;;;;;5055069;28;20231;-63
2022/01/18 03:28:05;;;;;;;22.47;4.00;;;2.20;99.90;;;;;;5050953;28;20330;-63
2022/01/18 03:30:54;;;;;;;16.80;4.80;;;2.10;99.90;;;;;;5053966;28;20175;-64
2022/01/18 03:33:22;;;;;;;19.50;4.03;;;2.10;99.90;;;;;;5055101;28;20170;-64
2022/01/18 03:35:49;;;;;;;11.87;3.10;;;2.20;99.90;;;;;;5048209;28;20227;-64
2022/01/18 03:38:16;;;;;;;25.23;4.07;;;2.30;99.90;;;;;;5037516;28;20188;-64
2022/01/18 03:40:42;;;;;;;22.23;3.57;;;2.30;99.90;;;;;;5040567;28;20195;-65
2022/01/18 03:43:11;;;;;;;19.50;4.30;;;2.30;99.90;;;;;;5044707;28;20263;-63
2022/01/18 03:45:41;;;;;;;18.57;2.87;;;2.30;99.90;;;;;;5040767;28;20259;-67
2022/01/18 03:48:12;;;;;;;19.33;3.20;;;2.30;99.90;;;;;;5038508;28;20656;-63
2022/01/18 03:50:38;;;;;;;16.97;3.53;;;2.30;99.90;;;;;;5041014;28;20494;-64
2022/01/18 03:53:04;;;;;;;15.63;3.37;;;2.40;99.90;;;;;;5038953;28;20188;-64
2022/01/18 03:55:30;;;;;;;16.17;3.13;;;2.50;99.90;;;;;;5037675;28;20184;-63
2022/01/18 03:57:56;;;;;;;24.20;3.70;;;2.40;99.90;;;;;;5038488;28;20325;-64
2022/01/18 04:00:27;;;;;;;11.90;3.27;;;2.50;99.90;;;;;;5039099;28;20184;-64
2022/01/18 04:02:54;;;;;;;21.93;3.10;;;2.60;99.90;;;;;;5039460;28;20171;-66
2022/01/18 04:05:20;;;;;;;18.67;3.23;;;2.60;99.90;;;;;;5039747;28;20194;-64
2022/01/18 04:07:46;;;;;;;15.90;3.97;;;2.70;99.90;;;;;;5038160;28;20190;-62
2022/01/18 04:10:13;;;;;;;20.00;3.83;;;2.70;99.90;;;;;;5035474;28;20542;-63
2022/01/18 04:12:39;;;;;;;19.87;3.20;;;2.70;99.90;;;;;;5036713;28;20191;-64
2022/01/18 04:15:07;;;;;;;12.90;3.07;;;2.80;99.90;;;;;;5038935;28;20248;-63
2022/01/18 04:30:54;;;;;;;25.20;3.83;;;2.80;99.90;;;;;;5034562;28;20176;-62
2022/01/18 04:33:20;;;;;;;16.37;3.10;;;2.80;99.90;;;;;;5043802;28;20809;-65
2022/01/18 04:35:46;;;;;;;24.67;4.43;;;2.80;99.90;;;;;;5041563;28;20233;-64
2022/01/18 04:38:13;;;;;;;19.40;3.40;;;2.80;99.90;;;;;;5036405;28;20220;-65
2022/01/18 04:40:43;;;;;;;18.57;3.37;;;2.90;99.90;;;;;;5037497;28;20210;-63
2022/01/18 04:48:33;;;;;;;16.13;3.83;;;2.80;99.90;;;;;;5035228;28;20224;-63
2022/01/18 04:51:11;;;;;;;17.10;3.30;;;2.80;99.90;;;;;;5037711;28;20636;-66
2022/01/18 04:53:41;;;;;;;14.43;3.10;;;2.90;99.90;;;;;;5036590;28;20215;-66
2022/01/18 04:56:14;;;;;;;15.50;3.60;;;2.80;99.90;;;;;;5037217;28;20207;-65
2022/01/18 04:58:40;;;;;;;17.47;3.30;;;2.80;99.90;;;;;;5039314;28;20266;-63
2022/01/18 05:01:07;;;;;;;14.03;3.23;;;2.90;99.90;;;;;;5037364;28;20607;-70
2022/01/18 05:03:34;;;;;;;19.50;3.77;;;2.90;99.90;;;;;;5033921;28;20644;-64
2022/01/18 05:06:07;;;;;;;14.97;3.37;;;2.90;99.90;;;;;;5036002;28;20336;-63
2022/01/18 05:08:33;;;;;;;20.73;3.57;;;2.90;99.90;;;;;;5038144;28;20174;-64
2022/01/18 05:10:59;;;;;;;24.87;3.77;;;3.00;99.90;;;;;;5035711;28;20700;-64
2022/01/18 05:13:59;;;;;;;18.60;3.13;;;2.90;99.90;;;;;;5039080;28;20178;-64
2022/01/18 05:21:34;;;;;;;15.53;3.20;;;2.90;99.90;;;;;;5033544;28;20194;-63
2022/01/18 05:24:00;;;;;;;21.97;3.00;;;2.90;99.90;;;;;;5038440;28;20177;-63
2022/01/18 05:26:28;;;;;;;12.97;3.63;;;2.90;99.90;;;;;;5038137;28;20188;-64
2022/01/18 05:28:53;;;;;;;15.53;3.17;;;3.00;99.90;;;;;;5038237;28;20187;-63
2022/01/18 05:31:19;;;;;;;20.10;3.33;;;2.90;99.90;;;;;;5039538;28;20185;-65
2022/01/18 05:33:47;;;;;;;15.83;4.03;;;2.90;99.90;;;;;;5041476;28;20223;-63
2022/01/18 05:36:14;;;;;;;10.33;3.07;;;2.90;99.90;;;;;;5043216;28;20271;-65
2022/01/18 05:38:40;;;;;;;17.50;3.40;;;2.90;99.90;;;;;;5040929;28;20192;-65
2022/01/18 05:41:09;;;;;;;11.90;2.87;;;2.90;99.90;;;;;;5039488;28;20633;-63
2022/01/18 05:43:34;;;;;;;14.50;3.17;;;3.00;99.90;;;;;;5042741;28;20683;-63
2022/01/18 05:46:00;;;;;;;10.93;2.70;;;3.00;99.90;;;;;;5042136;28;20184;-64
2022/01/18 05:48:26;;;;;;;18.73;3.20;;;3.00;99.90;;;;;;5043586;28;20521;-65
2022/01/18 05:50:54;;;;;;;16.83;3.37;;;2.90;99.90;;;;;;5043709;28;20291;-64
2022/01/18 05:53:20;;;;;;;19.43;3.90;;;3.00;99.90;;;;;;5042379;28;20745;-63
2022/01/18 05:55:46;;;;;;;14.40;3.63;;;2.90;99.90;;;;;;5038109;28;20177;-65
2022/01/18 05:58:11;;;;;;;17.93;3.03;;;2.90;99.90;;;;;;5042490;28;20760;-63
2022/01/18 06:00:40;;;;;;;15.97;3.20;;;3.00;99.90;;;;;;5040320;28;20189;-64
2022/01/18 06:03:13;;;;;;;13.87;3.13;;;2.90;99.90;;;;;;5039626;28;20579;-62
2022/01/18 06:08:23;;;;;;;12.67;2.93;;;3.00;99.90;;;;;;5043203;28;20178;-63
2022/01/18 06:10:49;;;;;;;13.13;3.00;;;2.90;99.90;;;;;;5041575;28;20525;-63
2022/01/18 06:13:15;;;;;;;14.57;3.07;;;3.00;99.90;;;;;;5045379;28;20189;-62
2022/01/18 06:15:41;;;;;;;7.50;2.33;;;3.00;99.90;;;;;;5041858;28;20192;-64
2022/01/18 06:18:07;;;;;;;12.30;3.10;;;3.00;99.90;;;;;;5048055;28;20231;-67
2022/01/18 06:20:33;;;;;;;19.13;4.37;;;3.00;99.90;;;;;;5047283;28;20181;-63
2022/01/18 06:22:59;;;;;;;11.07;3.67;;;3.00;99.90;;;;;;5046929;28;20251;-63
2022/01/18 06:25:25;;;;;;;16.40;3.43;;;3.00;99.90;;;;;;5036744;28;20181;-64
2022/01/18 06:27:53;;;;;;;20.83;4.63;;;3.00;99.90;;;;;;5038810;28;20181;-66
2022/01/18 06:30:19;;;;;;;21.70;5.50;;;3.00;99.90;;;;;;5034472;28;20177;-66
2022/01/18 06:32:46;;;;;;;22.97;8.50;;;2.90;99.90;;;;;;5038131;28;20192;-64
2022/01/18 06:35:14;;;;;;;19.30;5.63;;;3.00;99.90;;;;;;5039168;28;20314;-64
2022/01/18 06:37:41;;;;;;;22.60;4.73;;;3.00;99.90;;;;;;5039152;28;20223;-63
2022/01/18 06:40:09;;;;;;;17.13;3.70;;;3.10;99.90;;;;;;5037982;28;20177;-68
2022/01/18 06:42:35;;;;;;;18.03;4.37;;;3.00;99.90;;;;;;5039270;28;20260;-63
2022/01/18 06:45:00;;;;;;;17.13;3.33;;;3.10;99.90;;;;;;5040010;28;20290;-63
2022/01/18 06:47:27;;;;;;;20.80;3.43;;;3.00;99.90;;;;;;5037499;28;20865;-63
2022/01/18 06:49:52;;;;;;;15.33;3.10;;;3.00;99.90;;;;;;5035494;28;20598;-63
2022/01/18 06:52:21;;;;;;;13.77;3.83;;;3.10;99.90;;;;;;5034496;28;20185;-64
2022/01/18 06:54:47;;;;;;;7.40;2.90;;;3.20;99.90;;;;;;5040508;28;20206;-63
2022/01/18 06:57:13;;;;;;;8.80;2.50;;;3.20;99.90;;;;;;5039366;28;20309;-66
2022/01/18 06:59:38;;;;;;;12.63;3.00;;;3.20;99.90;;;;;;5042694;28;20179;-64
2022/01/18 07:02:05;;;;;;;13.93;3.77;;;3.10;99.90;;;;;;5040931;28;20189;-62
2022/01/18 07:04:30;;;;;;;12.47;2.50;;;3.20;99.90;;;;;;5040172;28;20547;-62
2022/01/18 07:06:56;;;;;;;12.00;3.17;;;3.20;99.90;;;;;;5039807;28;20206;-62
2022/01/18 07:09:25;;;;;;;11.63;3.43;;;3.20;99.90;;;;;;5039276;28;20188;-66
2022/01/18 07:11:56;;;;;;;18.87;3.50;;;3.20;99.90;;;;;;5040288;28;20207;-66
2022/01/18 07:14:23;;;;;;;11.50;3.30;;;3.20;99.90;;;;;;5043218;28;20596;-64
2022/01/18 07:16:49;;;;;;;22.40;3.70;;;3.20;99.90;;;;;;5045082;28;20223;-62
2022/01/18 07:19:15;;;;;;;12.40;3.03;;;3.20;99.90;;;;;;5048119;28;20593;-63
2022/01/18 07:21:42;;;;;;;13.23;3.27;;;3.20;99.90;;;;;;5040080;28;20189;-63
2022/01/18 07:24:19;;;;;;;12.67;3.23;;;3.20;99.90;;;;;;5044231;28;20176;-63
2022/01/18 07:26:46;;;;;;;13.80;2.80;;;3.30;99.90;;;;;;5038177;28;20169;-63
2022/01/18 07:29:13;;;;;;;13.77;2.90;;;3.30;99.90;;;;;;5039982;28;20244;-65
2022/01/18 07:31:38;;;;;;;10.00;2.97;;;3.30;99.90;;;;;;5039823;28;20180;-64
2022/01/18 07:34:04;;;;;;;13.30;3.53;;;3.30;99.90;;;;;;5039031;28;20246;-62
2022/01/18 07:36:30;;;;;;;16.57;4.70;;;3.40;99.90;;;;;;5045289;28;20247;-63
2022/01/18 07:38:56;;;;;;;14.63;4.17;;;3.30;99.90;;;;;;5036977;28;20209;-63
2022/01/18 07:41:22;;;;;;;20.47;3.67;;;3.40;99.90;;;;;;5034274;28;20523;-65
2022/01/18 07:43:48;;;;;;;11.90;2.97;;;3.50;99.90;;;;;;5039191;28;20201;-62
2022/01/18 07:46:13;;;;;;;14.07;3.30;;;3.50;99.90;;;;;;5072046;28;20180;-64
2022/01/18 07:48:39;;;;;;;9.17;3.37;;;3.50;99.90;;;;;;5037648;28;20220;-64
2022/01/18 07:51:05;;;;;;;9.73;2.73;;;3.40;99.90;;;;;;5034044;28;20193;-62
2022/01/18 07:53:30;;;;;;;12.07;3.07;;;3.40;99.90;;;;;;5034620;28;20185;-68
2022/01/18 07:55:56;;;;;;;6.90;2.83;;;3.40;99.90;;;;;;5033571;28;20262;-63
2022/01/18 07:58:22;;;;;;;13.03;3.07;;;3.50;99.90;;;;;;5032432;28;20322;-64
2022/01/18 08:00:47;;;;;;;14.77;3.27;;;3.50;99.90;;;;;;5037778;28;20704;-63
2022/01/18 08:03:14;;;;;;;19.10;3.23;;;3.50;99.90;;;;;;5037277;28;20538;-70
2022/01/18 08:05:41;;;;;;;17.20;3.47;;;3.60;99.90;;;;;;5035672;28;20191;-63
2022/01/18 08:08:07;;;;;;;13.33;3.40;;;3.50;99.90;;;;;;5036463;28;20177;-64
2022/01/18 08:10:33;;;;;;;13.77;3.43;;;3.60;99.90;;;;;;5033693;28;20237;-63
2022/01/18 08:13:02;;;;;;;13.43;2.83;;;3.60;99.90;;;;;;5038271;28;20305;-63
2022/01/18 08:15:36;;;;;;;6.83;2.43;;;3.60;99.90;;;;;;5035988;28;20185;-65
2022/01/18 08:18:03;;;;;;;12.40;3.37;;;3.60;99.90;;;;;;5037950;28;20217;-64
2022/01/18 08:20:28;;;;;;;12.17;3.17;;;3.60;99.90;;;;;;5038906;28;20177;-64
2022/01/18 08:22:54;;;;;;;14.30;2.47;;;3.60;99.90;;;;;;5040355;28;20262;-63
2022/01/18 08:25:20;;;;;;;9.53;3.40;;;3.70;99.90;;;;;;5039147;28;20192;-62
2022/01/18 08:27:46;;;;;;;18.30;3.53;;;3.60;99.90;;;;;;5035459;28;20616;-63
2022/01/18 08:30:16;;;;;;;18.47;4.40;;;3.70;99.90;;;;;;5038771;28;20191;-64
2022/01/18 08:32:43;;;;;;;4.97;2.07;;;3.60;99.90;;;;;;5040457;28;20637;-62
2022/01/18 08:35:09;;;;;;;14.20;2.87;;;3.70;99.90;;;;;;5036761;28;20268;-63
2022/01/18 08:37:35;;;;;;;17.53;2.80;;;3.60;99.90;;;;;;5037311;28;20235;-65
2022/01/18 08:40:02;;;;;;;14.40;3.07;;;3.70;99.90;;;;;;5036250;28;20640;-64
2022/01/18 08:42:28;;;;;;;12.83;2.90;;;3.80;99.90;;;;;;5038205;28;20273;-63
2022/01/18 08:44:54;;;;;;;12.73;3.17;;;3.70;99.90;;;;;;5041360;28;20200;-64
2022/01/18 08:47:20;;;;;;;6.03;2.73;;;3.80;99.90;;;;;;5034456;28;20216;-63
2022/01/18 08:49:47;;;;;;;13.00;3.00;;;3.70;99.90;;;;;;5037929;28;20208;-63
2022/01/18 08:52:13;;;;;;;13.60;2.97;;;3.70;99.90;;;;;;5032351;28;20187;-63
2022/01/18 08:54:42;;;;;;;11.07;3.17;;;3.70;99.90;;;;;;5039633;28;20186;-65
2022/01/18 08:57:08;;;;;;;12.40;3.03;;;3.70;99.90;;;;;;5037828;28;20210;-66
2022/01/18 08:59:35;;;;;;;10.50;2.63;;;3.80;99.90;;;;;;5042180;28;20567;-63
2022/01/18 09:02:06;;;;;;;14.10;4.07;;;3.70;99.90;;;;;;5041077;28;20266;-63
2022/01/18 09:04:33;;;;;;;11.20;3.20;;;3.80;99.90;;;;;;5038819;28;20281;-63
2022/01/18 09:07:02;;;;;;;18.83;3.77;;;3.80;99.90;;;;;;5040854;28;20196;-67
2022/01/18 09:09:28;;;;;;;11.43;1.80;;;3.90;99.90;;;;;;5043504;28;20258;-71
2022/01/18 09:11:54;;;;;;;8.77;2.27;;;3.90;99.90;;;;;;5043194;28;20176;-65
2022/01/18 09:14:19;;;;;;;15.37;3.30;;;3.90;99.90;;;;;;5047262;28;20566;-65
2022/01/18 09:16:45;;;;;;;8.20;2.47;;;3.90;99.90;;;;;;5045425;28;20211;-63
2022/01/18 09:19:11;;;;;;;7.47;2.33;;;3.90;99.90;;;;;;5041436;28;20247;-65
2022/01/18 09:21:37;;;;;;;19.63;3.50;;;4.00;99.90;;;;;;5041739;28;20206;-66
2022/01/18 09:24:04;;;;;;;16.10;3.23;;;4.00;99.90;;;;;;5042052;28;20248;-65
2022/01/18 09:26:29;;;;;;;11.27;3.00;;;4.00;99.90;;;;;;5039837;28;20678;-64
2022/01/18 09:28:55;;;;;;;21.00;3.83;;;4.00;99.90;;;;;;5043181;28;20357;-63
2022/01/18 09:31:21;;;;;;;17.03;3.93;;;3.90;99.90;;;;;;5042612;28;20226;-62
2022/01/18 09:33:47;;;;;;;15.00;2.97;;;3.90;99.90;;;;;;5044219;28;20188;-63
2022/01/18 09:36:13;;;;;;;10.90;2.63;;;4.00;99.90;;;;;;5042110;28;20698;-66
2022/01/18 09:38:38;;;;;;;14.13;2.93;;;4.00;99.90;;;;;;5039063;28;20674;-64
2022/01/18 09:41:11;;;;;;;9.67;2.70;;;4.10;99.90;;;;;;5040900;28;20178;-63
2022/01/18 09:43:39;;;;;;;12.53;2.50;;;4.10;99.90;;;;;;5076216;28;20181;-66
2022/01/18 09:46:06;;;;;;;15.17;3.10;;;4.00;99.90;;;;;;5039366;28;20183;-63
2022/01/18 09:48:32;;;;;;;11.17;3.13;;;4.10;99.90;;;;;;5043175;28;20298;-63
2022/01/18 09:50:59;;;;;;;11.87;2.43;;;4.10;99.90;;;;;;5039146;28;20192;-64
2022/01/18 09:53:25;;;;;;;5.87;2.60;;;4.10;99.90;;;;;;5036041;28;20217;-63
2022/01/18 09:55:53;;;;;;;9.70;2.53;;;4.20;99.90;;;;;;5035934;28;20187;-67
2022/01/18 09:58:20;;;;;;;9.83;3.20;;;4.20;99.90;;;;;;5036674;28;20209;-64
2022/01/18 10:00:46;;;;;;;14.77;2.97;;;4.20;99.90;;;;;;5040969;28;20523;-63
2022/01/18 10:03:32;;;;;;;4.30;2.13;;;4.30;99.90;;;;;;5036439;28;20498;-64
2022/01/18 10:05:58;;;;;;;15.93;2.33;;;4.30;99.90;;;;;;5045870;28;20253;-64
2022/01/18 10:08:24;;;;;;;12.33;2.50;;;4.40;99.90;;;;;;5040189;28;20265;-71
2022/01/18 10:11:00;;;;;;;12.97;3.00;;;4.40;99.90;;;;;;5041931;28;20208;-64
2022/01/18 10:13:28;;;;;;;24.23;4.13;;;4.50;99.90;;;;;;5041354;28;20617;-63
2022/01/18 10:16:04;;;;;;;10.27;3.00;;;4.40;99.90;;;;;;5035760;28;20282;-64
2022/01/18 10:18:45;;;;;;;15.17;4.10;;;4.50;99.90;;;;;;5039507;28;20199;-63
2022/01/18 10:21:15;;;;;;;14.60;4.17;;;4.50;99.90;;;;;;5039597;28;20191;-64
2022/01/18 10:23:49;;;;;;;10.93;3.50;;;4.50;99.90;;;;;;5041897;28;20547;-64
2022/01/18 10:26:21;;;;;;;7.73;3.63;;;4.60;99.90;;;;;;5036061;28;20646;-64
2022/01/18 10:28:48;;;;;;;11.57;3.27;;;4.50;99.90;;;;;;5044984;28;20186;-62
2022/01/18 10:31:41;;;;;;;9.40;2.70;;;4.50;99.90;;;;;;5043647;28;20177;-63
2022/01/18 10:34:23;;;;;;;12.23;2.90;;;4.60;99.90;;;;;;5042247;28;20564;-63
2022/01/18 10:36:58;;;;;;;14.07;3.57;;;4.70;99.90;;;;;;5040084;28;20225;-63
2022/01/18 10:39:26;;;;;;;12.97;3.53;;;4.70;99.90;;;;;;5040907;28;20208;-63
2022/01/18 10:41:53;;;;;;;16.03;4.73;;;4.70;99.90;;;;;;5036751;28;20171;-63
2022/01/18 10:44:20;;;;;;;9.63;3.83;;;4.80;99.90;;;;;;5040631;28;20185;-63
2022/01/18 10:46:48;;;;;;;13.80;3.43;;;4.70;99.90;;;;;;5037970;28;20177;-63
2022/01/18 10:49:40;;;;;;;10.03;2.60;;;4.90;99.90;;;;;;5040296;28;20238;-65
2022/01/18 10:52:18;;;;;;;9.27;3.13;;;4.80;99.90;;;;;;5040416;28;20623;-70
2022/01/18 10:54:49;;;;;;;9.70;2.97;;;4.80;99.90;;;;;;5037724;28;20179;-64
2022/01/18 10:57:24;;;;;;;9.70;3.10;;;4.70;99.90;;;;;;5040780;28;20204;-63
2022/01/18 11:00:11;;;;;;;6.93;2.50;;;4.70;99.90;;;;;;5040382;28;20184;-63
2022/01/18 11:02:42;;;;;;;7.03;2.83;;;4.70;99.90;;;;;;5043319;28;20199;-68
2022/01/18 11:05:18;;;;;;;7.57;2.83;;;4.80;99.90;;;;;;5038431;28;20199;-64
2022/01/18 11:07:45;;;;;;;8.90;3.00;;;4.80;99.90;;;;;;5040999;28;20196;-64
2022/01/18 11:10:13;;;;;;;6.27;2.70;;;4.90;99.90;;;;;;5037192;28;20584;-64
2022/01/18 11:12:52;;;;;;;11.27;3.13;;;4.80;99.90;;;;;;5042294;28;20185;-65
2022/01/18 11:15:21;;;;;;;5.87;2.93;;;4.80;99.90;;;;;;5038926;28;20181;-63
2022/01/18 11:17:52;;;;;;;6.63;2.73;;;4.70;99.90;;;;;;5035336;28;20218;-63
2022/01/18 11:20:20;;;;;;;10.20;2.50;;;4.70;99.90;;;;;;5037328;28;20188;-63
2022/01/18 11:22:49;;;;;;;10.57;3.07;;;4.60;99.90;;;;;;5036752;28;20174;-63
2022/01/18 11:25:16;;;;;;;15.07;3.20;;;4.60;99.90;;;;;;5033144;28;20181;-64
2022/01/18 11:27:47;;;;;;;7.40;2.60;;;4.70;99.90;;;;;;5040585;28;20616;-63
2022/01/18 11:30:14;;;;;;;8.17;2.27;;;4.60;99.90;;;;;;5039271;28;20178;-64
2022/01/18 11:32:40;;;;;;;5.30;2.30;;;4.70;99.90;;;;;;5035595;28;20180;-64
2022/01/18 11:35:10;;;;;;;6.27;2.37;;;4.80;99.90;;;;;;5039291;28;20328;-73
2022/01/18 11:37:44;;;;;;;8.37;2.13;;;4.80;99.90;;;;;;5042262;28;20210;-68
2022/01/18 11:40:14;;;;;;;6.93;2.30;;;4.80;99.90;;;;;;5043613;28;20185;-64
2022/01/18 11:42:50;;;;;;;7.03;2.40;;;4.80;99.90;;;;;;5040529;28;20236;-63
2022/01/18 11:45:43;;;;;;;5.57;1.90;;;4.90;99.90;;;;;;5036984;28;20183;-63
2022/01/18 11:48:18;;;;;;;8.20;2.53;;;5.00;99.90;;;;;;5037603;28;20289;-64
2022/01/18 11:51:00;;;;;;;6.43;2.27;;;4.90;99.90;;;;;;5038779;28;20203;-63
2022/01/18 11:56:11;;;;;;;5.57;2.00;;;5.10;99.90;;;;;;5039107;28;20240;-64
2022/01/18 11:58:37;;;;;;;4.63;1.90;;;5.20;99.90;;;;;;5039474;28;20171;-67
2022/01/18 12:01:03;;;;;;;5.80;2.63;;;5.20;99.90;;;;;;5041797;28;20247;-64
2022/01/18 12:03:45;;;;;;;6.07;2.30;;;5.30;99.90;;;;;;5039526;28;20177;-63
2022/01/18 12:06:11;;;;;;;5.30;2.07;;;5.30;99.90;;;;;;5040610;28;20202;-65
2022/01/18 12:08:43;;;;;;;3.77;1.77;;;5.20;99.90;;;;;;5039718;28;20181;-65
2022/01/18 12:11:11;;;;;;;10.07;1.93;;;5.20;99.90;;;;;;5040949;28;20660;-64
2022/01/18 12:13:40;;;;;;;4.37;2.30;;;5.10;99.90;;;;;;5038540;28;20173;-64
2022/01/18 12:16:16;;;;;;;4.47;2.03;;;5.10;99.90;;;;;;5031231;28;20188;-69
2022/01/18 12:18:53;;;;;;;9.57;1.80;;;5.10;99.90;;;;;;5031801;28;20185;-64
2022/01/18 12:21:24;;;;;;;9.97;1.63;;;5.10;99.90;;;;;;5037149;28;20177;-64
2022/01/18 12:23:50;;;;;;;9.00;2.60;;;5.20;99.90;;;;;;5039873;28;20181;-63
2022/01/18 12:26:32;;;;;;;9.63;1.87;;;5.30;99.90;;;;;;5037174;28;20199;-62
2022/01/18 12:29:36;;;;;;;7.20;2.07;;;5.30;99.90;;;;;;5036040;28;20464;-69
2022/01/18 12:32:18;;;;;;;7.53;2.67;;;5.20;99.90;;;;;;5030343;28;20184;-63
2022/01/18 12:34:50;;;;;;;7.17;2.00;;;5.20;99.90;;;;;;5033747;28;20276;-64
2022/01/18 12:37:20;;;;;;;4.07;2.00;;;5.10;99.90;;;;;;5042485;28;20213;-63
2022/01/18 12:40:03;;;;;;;5.07;2.93;;;5.00;99.90;;;;;;5032904;28;20619;-63
2022/01/18 12:45:06;;;;;;;5.53;2.03;;;5.10;99.90;;;;;;5033220;28;20563;-62
2022/01/18 12:47:36;;;;;;;4.90;2.00;;;5.10;99.90;;;;;;5032978;28;20177;-62
2022/01/18 12:50:07;;;;;;;10.00;2.27;;;5.10;99.90;;;;;;5037124;28;20167;-64
2022/01/18 12:52:45;;;;;;;7.00;2.00;;;5.10;99.90;;;;;;5037329;28;20168;-63
2022/01/18 12:55:32;;;;;;;3.63;2.27;;;5.10;99.90;;;;;;5033522;28;20199;-62
2022/01/18 12:58:34;;;;;;;5.70;2.10;;;5.30;99.90;;;;;;5033453;28;20204;-64
2022/01/18 13:01:10;;;;;;;4.50;1.83;;;5.10;99.90;;;;;;5030862;28;20162;-65
2022/01/18 13:03:36;;;;;;;8.00;2.50;;;5.00;99.90;;;;;;5039368;28;20220;-64
2022/01/18 13:06:09;;;;;;;12.93;2.63;;;5.00;99.90;;;;;;5033243;28;20157;-63
2022/01/18 13:08:55;;;;;;;6.30;1.93;;;5.10;99.90;;;;;;5032887;28;20233;-64
2022/01/18 13:11:26;;;;;;;6.30;2.00;;;5.10;99.90;;;;;;5032617;28;20215;-65
2022/01/18 13:14:03;;;;;;;5.20;2.37;;;5.20;99.90;;;;;;5033138;28;20187;-65
2022/01/18 13:27:39;;;;;;;12.60;5.43;;;5.30;99.90;;;;;;5028601;28;20193;-64
2022/01/18 13:30:10;;;;;;;2.13;1.80;;;5.40;99.90;;;;;;5033187;28;20199;-64
2022/01/18 13:32:37;;;;;;;2.90;1.60;;;5.30;99.90;;;;;;5035637;28;20250;-64
2022/01/18 13:35:05;;;;;;;5.17;1.97;;;5.20;99.90;;;;;;5052717;28;20232;-64
2022/01/18 13:37:33;;;;;;;4.17;2.20;;;5.20;99.90;;;;;;5052672;28;20204;-64
2022/01/18 13:40:06;;;;;;;8.80;2.97;;;5.20;99.90;;;;;;5052729;28;20246;-64
2022/01/18 13:42:43;;;;;;;5.70;2.33;;;5.20;99.90;;;;;;5052104;28;20302;-65
2022/01/18 13:45:16;;;;;;;7.67;2.10;;;5.10;99.90;;;;;;5052502;28;20651;-63
2022/01/18 13:48:03;;;;;;;4.43;2.13;;;5.10;99.90;;;;;;5052155;28;20160;-63
2022/01/18 13:50:37;;;;;;;5.37;1.80;;;5.20;99.90;;;;;;5053817;28;20160;-63
2022/01/18 13:53:10;;;;;;;9.47;2.17;;;5.20;99.90;;;;;;5056683;28;20259;-63
2022/01/18 13:55:42;;;;;;;9.60;2.30;;;5.20;99.90;;;;;;5055840;28;20193;-63
2022/01/18 13:58:08;;;;;;;6.57;2.53;;;5.20;99.90;;;;;;5055774;28;20213;-64
2022/01/18 14:00:34;;;;;;;5.33;2.10;;;5.20;99.90;;;;;;5056389;28;20164;-63
2022/01/18 14:02:59;;;;;;;6.53;1.20;;;5.20;99.90;;;;;;5056105;28;20172;-63
2022/01/18 14:05:26;;;;;;;5.53;1.40;;;5.20;99.90;;;;;;5054447;28;20180;-62
2022/01/18 14:08:11;;;;;;;4.80;1.37;;;5.20;99.90;;;;;;5056130;28;20166;-63
2022/01/18 14:10:37;;;;;;;2.07;1.60;;;5.10;99.90;;;;;;5055805;28;20168;-63
2022/01/18 14:13:04;;;;;;;2.00;1.20;;;5.20;99.90;;;;;;5055648;28;20214;-63
2022/01/18 14:15:37;;;;;;;4.13;1.60;;;5.10;99.90;;;;;;5054918;28;20183;-62
2022/01/18 14:18:04;;;;;;;1.47;1.20;;;5.10;99.90;;;;;;5055853;28;20586;-63
2022/01/18 14:20:32;;;;;;;4.37;1.93;;;5.10;99.90;;;;;;5055940;28;20515;-65
2022/01/18 14:22:59;;;;;;;3.80;1.50;;;5.10;99.90;;;;;;5056175;28;20238;-63
2022/01/18 14:25:32;;;;;;;9.70;1.90;;;5.20;99.90;;;;;;5039231;28;20623;-65
2022/01/18 14:28:12;;;;;;;2.90;1.47;;;5.10;99.90;;;;;;5039517;28;20322;-65
2022/01/18 14:30:42;;;;;;;5.47;2.33;;;5.00;99.90;;;;;;5033491;28;20169;-65
2022/01/18 14:33:09;;;;;;;7.37;3.13;;;5.00;99.90;;;;;;5036681;28;20164;-63
2022/01/18 14:35:39;;;;;;;6.60;1.97;;;4.90;99.90;;;;;;5036687;28;20659;-64